BMA weather

Stockholm-Bromma Airport
Stockholm, Stockholms län, Sweden

Public forecast

Using degrees Celsius for public forecast. Weather courtesy of forecast.io.

Current aviation weather report (METAR) for Stockholm-Bromma Airport

Retrieved 2019/10/20 23:20 UTC (14 minutes ago):

ESSB 202320Z AUTO VRB02KT 9999 OVC005/// 08/08 Q1014

Aviation forecast (TAF) for Stockholm-Bromma Airport

Forecast is more than 12 hours old.

Retrieved 2017/03/27 06:35 UTC (3 years ago):

TAF ESSB 270530Z 2706/2724 27008KT CAVOK BECMG 2710/2713 29015G25KT